Lesley Pg — MXUG5 — position and weather

sailwx.info

Track history (hours):
 
Tides and Currents Weather Stations Pressure Air Temp Water Temp Dewpoint Dewpoint Depression Visibility Wind Speed Wind Dir Waves Ship Positions

Lesley Pg

Last reported at 2017-Aug-16 19:36 UTC. Time now 2017-Aug-17 01:32 UTC.
Position N 17°55' W 063°10'.

Length 102 m; draft 4.9 m.

Type: Tanker. MMSI: 234910000.

Date/timePositionNaut miles runAvg speedWind from/ knotsBaromVisibWave heightAir tempDewpointWater temp
2017-Aug-16 19:36N 17°55' W 063°10'1 9.2
2017-Aug-16 19:30N 17°56' W 063°10'5 9.6
2017-Aug-16 18:59N 18°01' W 063°11'5 9.7
2017-Aug-16 18:30N 18°05' W 063°11'5 0.7
2017-Aug-16 10:39N 18°09' W 063°06'1 8.6
2017-Aug-16 10:29N 18°08' W 063°08'4 8.8
2017-Aug-16 10:00N 18°07' W 063°12'2 4.2
2017-Aug-16 09:30N 18°07' W 063°14'5 9.0
2017-Aug-16 08:59N 18°08' W 063°19'4 8.9
2017-Aug-16 08:30N 18°09' W 063°23'4 8.8
2017-Aug-16 08:00N 18°09' W 063°28'1 2.1
2017-Aug-16 07:30N 18°10' W 063°29'2 4.7
2017-Aug-16 07:00N 18°10' W 063°27'4 8.6
2017-Aug-16 06:30N 18°10' W 063°31'58 8.5
2017-Aug-15 23:38N 18°19' W 064°32'3 9.5
2017-Aug-15 23:22N 18°22' W 064°33'3 5.6
2017-Aug-15 22:52N 18°25' W 064°33'0 0.0
2017-Aug-15 22:28N 18°25' W 064°33'0 0.0
2017-Aug-15 21:58N 18°25' W 064°33'0 0.0
2017-Aug-15 21:28N 18°25' W 064°33'0 0.0
2017-Aug-15 20:58N 18°25' W 064°33'0 0.0
2017-Aug-15 20:22N 18°25' W 064°33'0 0.0
2017-Aug-15 19:58N 18°25' W 064°33'0 0.0
2017-Aug-15 19:28N 18°25' W 064°33'0 0.0
2017-Aug-15 18:46N 18°25' W 064°33'0 0.0
2017-Aug-15 18:16N 18°25' W 064°33'0 0.0
2017-Aug-15 17:58N 18°25' W 064°33'0 0.0
2017-Aug-15 17:28N 18°25' W 064°33'0 0.0
2017-Aug-15 16:58N 18°25' W 064°33'0 0.0
2017-Aug-15 16:28N 18°25' W 064°33'0 0.0
2017-Aug-15 15:58N 18°25' W 064°33'0 0.0
2017-Aug-15 15:28N 18°25' W 064°33'0 0.0
2017-Aug-15 14:58N 18°25' W 064°33'0 0.1
2017-Aug-15 14:12N 18°25' W 064°33'1 6.8
2017-Aug-15 14:00N 18°25' W 064°34'2 0.1
2017-Aug-14 21:18N 18°25' W 064°36'0 0.0
2017-Aug-14 20:58N 18°25' W 064°36'0 0.0
2017-Aug-14 20:27N 18°25' W 064°36'0 0.0
2017-Aug-14 19:53N 18°25' W 064°36'0 0.4
2017-Aug-14 19:19N 18°25' W 064°36'1 4.1
2017-Aug-14 19:00N 18°25' W 064°35'2 3.7
2017-Aug-14 18:30N 18°24' W 064°33'0 0.0
2017-Aug-14 18:00N 18°24' W 064°33'0 0.0
2017-Aug-14 17:29N 18°24' W 064°33'0 0.0
2017-Aug-14 17:00N 18°24' W 064°33'0 0.0
2017-Aug-14 16:30N 18°24' W 064°33'0 0.0
2017-Aug-14 16:00N 18°24' W 064°33'0 0.0
2017-Aug-14 15:30N 18°24' W 064°33'0 0.1
2017-Aug-14 15:00N 18°24' W 064°33'56 9.8
2017-Aug-14 09:19N 18°07' W 063°37'411.4
2017-Aug-14 08:58N 18°06' W 063°33'510.9
2017-Aug-14 08:30N 18°05' W 063°28'611.2
2017-Aug-14 07:57N 18°04' W 063°22'511.0
2017-Aug-14 07:28N 18°03' W 063°16'510.9
2017-Aug-14 06:58N 18°01' W 063°11'510.3
2017-Aug-14 06:28N 18°01' W 063°05'0 0.6
2017-Aug-14 05:54N 18°01' W 063°05'0 0.0
2017-Aug-14 05:30N 18°01' W 063°05'0 0.0
2017-Aug-14 04:45N 18°01' W 063°05'0 0.0
2017-Aug-14 04:27N 18°01' W 063°05'0 0.0
2017-Aug-14 03:50N 18°01' W 063°05'0 0.0
2017-Aug-14 03:30N 18°01' W 063°05'0 0.0
2017-Aug-14 02:59N 18°01' W 063°05'0 0.0
2017-Aug-14 02:21N 18°01' W 063°05'0 0.0
2017-Aug-14 01:41N 18°01' W 063°05'0 0.0
2017-Aug-14 01:26N 18°01' W 063°05'0 0.0
2017-Aug-14 00:54N 18°01' W 063°05'0 0.0
2017-Aug-14 00:17N 18°01' W 063°05'0 0.0
2017-Aug-13 23:56N 18°01' W 063°05'0 0.0
2017-Aug-13 23:25N 18°01' W 063°05'0 0.0
2017-Aug-13 22:56N 18°01' W 063°05'0 0.0
2017-Aug-13 22:26N 18°01' W 063°05'0 0.0
2017-Aug-13 21:54N 18°01' W 063°05'0 0.0
2017-Aug-13 21:30N 18°01' W 063°05'0 0.0
2017-Aug-13 20:49N 18°01' W 063°05'0 0.0
2017-Aug-13 20:25N 18°01' W 063°05'0 0.0
2017-Aug-13 19:50N 18°01' W 063°05'0 0.0
2017-Aug-13 19:27N 18°01' W 063°05'0 0.0
2017-Aug-13 18:59N 18°01' W 063°05'0 0.0
2017-Aug-13 18:30N 18°01' W 063°05'0 0.0
2017-Aug-13 18:00N 18°01' W 063°05'0 0.0
2017-Aug-13 17:30N 18°01' W 063°05'0 0.0
2017-Aug-13 17:00N 18°01' W 063°05'0 0.1
2017-Aug-13 16:24N 18°01' W 063°05'0 0.3
2017-Aug-13 15:59N 18°01' W 063°05'1 2.1
2017-Aug-13 15:29N 18°00' W 063°05'510.3
2017-Aug-13 15:00N 17°55' W 063°05'510.5
2017-Aug-13 14:30N 17°50' W 063°05'7210.2
2017-Aug-13 07:28N 16°45' W 062°32'510.3
2017-Aug-13 07:00N 16°41' W 062°29'510.2
2017-Aug-13 06:30N 16°37' W 062°26'510.2
2017-Aug-13 06:00N 16°33' W 062°23'510.2
2017-Aug-13 05:30N 16°29' W 062°20'510.1
2017-Aug-13 05:00N 16°24' W 062°17'5 9.9
2017-Aug-13 04:30N 16°20' W 062°14'4410.3
2017-Aug-13 00:12N 15°45' W 061°47'211.1
2017-Aug-13 00:00N 15°43' W 061°46'511.1
2017-Aug-12 23:30N 15°39' W 061°42'611.1
2017-Aug-12 22:59N 15°34' W 061°38'610.8
2017-Aug-12 22:26N 15°30' W 061°35'49 2.9
2017-Aug-12 05:44N 14°43' W 061°22'4 9.8
2017-Aug-12 05:17N 14°38' W 061°22'410.3
2017-Aug-12 04:53N 14°34' W 061°21'410.7
2017-Aug-12 04:30N 14°30' W 061°21'4 0.2
2017-Aug-11 05:01N 14°27' W 061°18'3 9.3
2017-Aug-11 04:43N 14°30' W 061°19'2 9.3
2017-Aug-11 04:28N 14°32' W 061°19'4 9.2
2017-Aug-11 04:00N 14°36' W 061°20'5 9.6
2017-Aug-11 03:29N 14°41' W 061°22'5110.0
2017-Aug-10 22:20N 15°31' W 061°34'510.3
2017-Aug-10 21:48N 15°35' W 061°38'410.0
2017-Aug-10 21:25N 15°38' W 061°41'710.0
2017-Aug-10 20:44N 15°43' W 061°46'2410.2
2017-Aug-10 18:20N 16°03' W 062°00'411.6
2017-Aug-10 18:01N 16°07' W 062°00'611.5
2017-Aug-10 17:30N 16°12' W 061°60'611.3
2017-Aug-10 17:00N 16°18' W 061°60'510.9
2017-Aug-10 16:30N 16°23' W 061°60'510.3
2017-Aug-10 16:00N 16°29' W 061°59'510.6
2017-Aug-10 15:30N 16°34' W 061°59'510.6
2017-Aug-10 15:01N 16°39' W 061°59'510.7
2017-Aug-10 14:31N 16°44' W 061°58'510.8
2017-Aug-10 14:01N 16°50' W 061°58'510.8
2017-Aug-10 13:31N 16°55' W 061°58'510.7
2017-Aug-10 13:01N 17°01' W 061°58'510.5
2017-Aug-10 12:30N 17°06' W 061°58'4 7.6
2017-Aug-10 12:00N 17°09' W 061°55'3 5.5
2017-Aug-10 11:29N 17°09' W 061°52'0 0.0
2017-Aug-10 10:59N 17°09' W 061°52'0 0.0
2017-Aug-10 10:29N 17°09' W 061°52'0 0.0
2017-Aug-10 09:59N 17°09' W 061°52'0 0.0
2017-Aug-10 09:29N 17°09' W 061°52'0 0.0
2017-Aug-10 08:59N 17°09' W 061°52'0 0.0
2017-Aug-10 08:29N 17°09' W 061°52'0 0.0
2017-Aug-10 07:59N 17°09' W 061°52'0 0.0
2017-Aug-10 07:29N 17°09' W 061°52'0 0.0
2017-Aug-10 06:59N 17°09' W 061°52'0 0.0
2017-Aug-10 06:29N 17°09' W 061°52'0 0.0
2017-Aug-10 05:59N 17°09' W 061°52'0 0.0
2017-Aug-10 05:29N 17°09' W 061°52'0 0.0
2017-Aug-10 05:00N 17°09' W 061°52'0 0.0
2017-Aug-10 04:30N 17°09' W 061°52'0 0.0
2017-Aug-10 04:00N 17°09' W 061°52'0 0.0
2017-Aug-10 03:29N 17°09' W 061°52'0 0.0
2017-Aug-10 02:59N 17°09' W 061°52'0 0.2
2017-Aug-10 02:31N 17°09' W 061°52'1 1.4
2017-Aug-10 02:01N 17°09' W 061°53'1 2.0
2017-Aug-10 01:30N 17°09' W 061°52'0 0.0
2017-Aug-10 01:00N 17°09' W 061°52'0 0.0
2017-Aug-10 00:30N 17°09' W 061°52'0 0.0
2017-Aug-10 00:00N 17°09' W 061°52'0 0.0
2017-Aug-09 23:30N 17°09' W 061°52'0 0.0
2017-Aug-09 23:00N 17°09' W 061°52'0 0.0
2017-Aug-09 22:30N 17°09' W 061°52'0 0.0
2017-Aug-09 22:00N 17°09' W 061°52'0 0.0
2017-Aug-09 21:30N 17°09' W 061°52'0 0.0
2017-Aug-09 21:00N 17°09' W 061°52'0 0.0
2017-Aug-09 20:30N 17°09' W 061°52'0 0.0
2017-Aug-09 20:00N 17°09' W 061°52'0 0.0
2017-Aug-09 19:30N 17°09' W 061°52'0 0.0
2017-Aug-09 19:00N 17°09' W 061°52'0 0.0
2017-Aug-09 18:30N 17°09' W 061°52'0 0.0
2017-Aug-09 18:00N 17°09' W 061°52'0 0.0
2017-Aug-09 17:30N 17°09' W 061°52'0 0.0
2017-Aug-09 17:00N 17°09' W 061°52'0 0.0
2017-Aug-09 16:30N 17°09' W 061°52'0 0.0
2017-Aug-09 16:00N 17°09' W 061°52'0 0.0
2017-Aug-09 15:30N 17°09' W 061°52'0 0.0
2017-Aug-09 15:00N 17°09' W 061°52'0 0.0
2017-Aug-09 14:30N 17°09' W 061°52'0 0.0
2017-Aug-09 14:00N 17°09' W 061°52'0 0.0
2017-Aug-09 13:30N 17°09' W 061°52'0 0.0
2017-Aug-09 13:00N 17°09' W 061°52'0 0.0
2017-Aug-09 12:30N 17°09' W 061°52'0 0.0
2017-Aug-09 12:00N 17°09' W 061°52'0 0.0
2017-Aug-09 11:30N 17°09' W 061°52'0 0.0
2017-Aug-09 11:00N 17°09' W 061°52'0 0.0
2017-Aug-09 10:30N 17°09' W 061°52'0 0.0
2017-Aug-09 10:00N 17°09' W 061°52'0 0.0
2017-Aug-09 09:30N 17°09' W 061°52'0 0.0
2017-Aug-09 09:00N 17°09' W 061°52'0 0.0
2017-Aug-09 08:30N 17°09' W 061°52'0 0.0
2017-Aug-09 08:00N 17°09' W 061°52'0 0.0
2017-Aug-09 07:30N 17°09' W 061°52'0 0.0
2017-Aug-09 07:00N 17°09' W 061°52'0 0.0
2017-Aug-09 06:30N 17°09' W 061°52'0 0.0
2017-Aug-09 06:00N 17°09' W 061°52'0 0.0
2017-Aug-09 05:30N 17°09' W 061°52'0 0.0
2017-Aug-09 05:00N 17°09' W 061°52'0 0.0
2017-Aug-09 04:30N 17°09' W 061°52'0 0.0
2017-Aug-09 04:00N 17°09' W 061°52'0 0.0
2017-Aug-09 03:30N 17°09' W 061°52'0 0.0
2017-Aug-09 03:00N 17°09' W 061°52'0 0.0
2017-Aug-09 02:30N 17°09' W 061°52'0 0.0
2017-Aug-09 02:00N 17°09' W 061°52'0 0.0
2017-Aug-09 01:30N 17°09' W 061°52'0 0.0
2017-Aug-09 01:00N 17°09' W 061°52'0 0.0
2017-Aug-09 00:30N 17°09' W 061°52'0 0.0
2017-Aug-09 00:00N 17°09' W 061°52'0 0.0
2017-Aug-08 23:30N 17°09' W 061°52'0 0.0
2017-Aug-08 23:00N 17°09' W 061°52'0 0.0
2017-Aug-08 22:30N 17°09' W 061°52'0 0.1
2017-Aug-08 22:00N 17°09' W 061°52'1 2.2
2017-Aug-08 21:30N 17°09' W 061°53'1 1.4
2017-Aug-08 21:00N 17°08' W 061°53'0 0.0
2017-Aug-08 20:30N 17°08' W 061°53'0 0.0
2017-Aug-08 20:00N 17°08' W 061°53'0 0.0
2017-Aug-08 19:30N 17°08' W 061°53'0 0.0
2017-Aug-08 19:00N 17°08' W 061°53'0 0.0
2017-Aug-08 18:30N 17°08' W 061°53'0 0.0
2017-Aug-08 18:00N 17°08' W 061°53'0 0.0
2017-Aug-08 17:30N 17°08' W 061°53'0 0.0
2017-Aug-08 17:00N 17°08' W 061°53'0 0.0
2017-Aug-08 16:30N 17°08' W 061°53'0 0.0
2017-Aug-08 16:00N 17°08' W 061°53'0 0.0
2017-Aug-08 15:30N 17°08' W 061°53'0 0.0
2017-Aug-08 15:00N 17°08' W 061°53'0 0.0
2017-Aug-08 14:30N 17°08' W 061°53'0 0.0
2017-Aug-08 14:00N 17°08' W 061°53'0 0.1
2017-Aug-08 13:30N 17°08' W 061°53'0 0.0
2017-Aug-08 13:00N 17°08' W 061°53'0 0.0
2017-Aug-08 12:30N 17°08' W 061°53'0 0.0
2017-Aug-08 12:00N 17°08' W 061°53'0 0.0
2017-Aug-08 11:30N 17°08' W 061°53'0 0.0
2017-Aug-08 11:00N 17°08' W 061°53'0 0.1
2017-Aug-08 10:30N 17°08' W 061°53'3 5.6
2017-Aug-08 10:00N 17°09' W 061°56'5 9.6
2017-Aug-08 09:30N 17°09' W 062°01'5 9.4
2017-Aug-08 09:00N 17°09' W 062°06'5 9.2
2017-Aug-08 08:30N 17°08' W 062°11'5 9.0
2017-Aug-08 08:00N 17°08' W 062°15'2 3.3
2017-Aug-08 07:30N 17°07' W 062°16'510.1
2017-Aug-08 06:59N 17°04' W 062°11'3 5.4
2017-Aug-08 06:30N 17°03' W 062°09'5 9.5
2017-Aug-08 06:00N 17°05' W 062°13'5 9.3
2017-Aug-08 05:30N 17°07' W 062°17'3 5.1
2017-Aug-08 05:00N 17°09' W 062°19'5 9.8
2017-Aug-08 04:30N 17°06' W 062°16'5 9.8
2017-Aug-08 04:00N 17°02' W 062°12'5 9.8
2017-Aug-08 03:30N 16°59' W 062°08'5 9.8
2017-Aug-08 03:00N 16°55' W 062°04'510.2
2017-Aug-08 02:30N 16°52' W 062°01'5 9.1
2017-Aug-08 02:00N 16°48' W 061°58'5 9.4
2017-Aug-08 01:30N 16°43' W 061°58'5 9.5
2017-Aug-08 01:00N 16°39' W 061°59'5 9.6
2017-Aug-08 00:30N 16°34' W 061°59'5 9.3
2017-Aug-08 00:00N 16°29' W 061°59'5 9.3
2017-Aug-07 23:30N 16°25' W 061°60'5 9.3
2017-Aug-07 23:00N 16°20' W 061°60'5 9.5
2017-Aug-07 22:30N 16°15' W 061°60'5 9.6
2017-Aug-07 22:00N 16°10' W 061°60'17 9.9
2017-Aug-07 20:16N 15°57' W 061°49'310.6
2017-Aug-07 20:00N 15°56' W 061°46'1011.0
2017-Aug-07 19:06N 15°56' W 061°36'  
Track history (hours):
 
Tides and Currents Weather Stations Pressure Air Temp Water Temp Dewpoint Dewpoint Depression Visibility Wind Speed Wind Dir Waves Ship Positions

Lesley Pg

Last reported at 2017-Aug-16 19:36 UTC. Time now 2017-Aug-17 01:32 UTC.
Position N 17°55' W 063°10'.

Length 102 m; draft 4.9 m.

Type: Tanker. MMSI: 234910000.

Date/timePositionNaut miles runAvg speedWind from/ knotsBaromVisibWave heightAir tempDewpointWater temp
2017-Aug-16 19:36N 17°55' W 063°10'1 9.2
2017-Aug-16 19:30N 17°56' W 063°10'5 9.6
2017-Aug-16 18:59N 18°01' W 063°11'5 9.7
2017-Aug-16 18:30N 18°05' W 063°11'5 0.7
2017-Aug-16 10:39N 18°09' W 063°06'1 8.6
2017-Aug-16 10:29N 18°08' W 063°08'4 8.8
2017-Aug-16 10:00N 18°07' W 063°12'2 4.2
2017-Aug-16 09:30N 18°07' W 063°14'5 9.0
2017-Aug-16 08:59N 18°08' W 063°19'4 8.9
2017-Aug-16 08:30N 18°09' W 063°23'4 8.8
2017-Aug-16 08:00N 18°09' W 063°28'1 2.1
2017-Aug-16 07:30N 18°10' W 063°29'2 4.7
2017-Aug-16 07:00N 18°10' W 063°27'4 8.6
2017-Aug-16 06:30N 18°10' W 063°31'58 8.5
2017-Aug-15 23:38N 18°19' W 064°32'3 9.5
2017-Aug-15 23:22N 18°22' W 064°33'3 5.6
2017-Aug-15 22:52N 18°25' W 064°33'0 0.0
2017-Aug-15 22:28N 18°25' W 064°33'0 0.0
2017-Aug-15 21:58N 18°25' W 064°33'0 0.0
2017-Aug-15 21:28N 18°25' W 064°33'0 0.0
2017-Aug-15 20:58N 18°25' W 064°33'0 0.0
2017-Aug-15 20:22N 18°25' W 064°33'0 0.0
2017-Aug-15 19:58N 18°25' W 064°33'0 0.0
2017-Aug-15 19:28N 18°25' W 064°33'0 0.0
2017-Aug-15 18:46N 18°25' W 064°33'0 0.0
2017-Aug-15 18:16N 18°25' W 064°33'0 0.0
2017-Aug-15 17:58N 18°25' W 064°33'0 0.0
2017-Aug-15 17:28N 18°25' W 064°33'0 0.0
2017-Aug-15 16:58N 18°25' W 064°33'0 0.0
2017-Aug-15 16:28N 18°25' W 064°33'0 0.0
2017-Aug-15 15:58N 18°25' W 064°33'0 0.0
2017-Aug-15 15:28N 18°25' W 064°33'0 0.0
2017-Aug-15 14:58N 18°25' W 064°33'0 0.1
2017-Aug-15 14:12N 18°25' W 064°33'1 6.8
2017-Aug-15 14:00N 18°25' W 064°34'2 0.1
2017-Aug-14 21:18N 18°25' W 064°36'0 0.0
2017-Aug-14 20:58N 18°25' W 064°36'0 0.0
2017-Aug-14 20:27N 18°25' W 064°36'0 0.0
2017-Aug-14 19:53N 18°25' W 064°36'0 0.4
2017-Aug-14 19:19N 18°25' W 064°36'1 4.1
2017-Aug-14 19:00N 18°25' W 064°35'2 3.7
2017-Aug-14 18:30N 18°24' W 064°33'0 0.0
2017-Aug-14 18:00N 18°24' W 064°33'0 0.0
2017-Aug-14 17:29N 18°24' W 064°33'0 0.0
2017-Aug-14 17:00N 18°24' W 064°33'0 0.0
2017-Aug-14 16:30N 18°24' W 064°33'0 0.0
2017-Aug-14 16:00N 18°24' W 064°33'0 0.0
2017-Aug-14 15:30N 18°24' W 064°33'0 0.1
2017-Aug-14 15:00N 18°24' W 064°33'56 9.8
2017-Aug-14 09:19N 18°07' W 063°37'411.4
2017-Aug-14 08:58N 18°06' W 063°33'510.9
2017-Aug-14 08:30N 18°05' W 063°28'611.2
2017-Aug-14 07:57N 18°04' W 063°22'511.0
2017-Aug-14 07:28N 18°03' W 063°16'510.9
2017-Aug-14 06:58N 18°01' W 063°11'510.3
2017-Aug-14 06:28N 18°01' W 063°05'0 0.6
2017-Aug-14 05:54N 18°01' W 063°05'0 0.0
2017-Aug-14 05:30N 18°01' W 063°05'0 0.0
2017-Aug-14 04:45N 18°01' W 063°05'0 0.0
2017-Aug-14 04:27N 18°01' W 063°05'0 0.0
2017-Aug-14 03:50N 18°01' W 063°05'0 0.0
2017-Aug-14 03:30N 18°01' W 063°05'0 0.0
2017-Aug-14 02:59N 18°01' W 063°05'0 0.0
2017-Aug-14 02:21N 18°01' W 063°05'0 0.0
2017-Aug-14 01:41N 18°01' W 063°05'0 0.0
2017-Aug-14 01:26N 18°01' W 063°05'0 0.0
2017-Aug-14 00:54N 18°01' W 063°05'0 0.0
2017-Aug-14 00:17N 18°01' W 063°05'0 0.0
2017-Aug-13 23:56N 18°01' W 063°05'0 0.0
2017-Aug-13 23:25N 18°01' W 063°05'0 0.0
2017-Aug-13 22:56N 18°01' W 063°05'0 0.0
2017-Aug-13 22:26N 18°01' W 063°05'0 0.0
2017-Aug-13 21:54N 18°01' W 063°05'0 0.0
2017-Aug-13 21:30N 18°01' W 063°05'0 0.0
2017-Aug-13 20:49N 18°01' W 063°05'0 0.0
2017-Aug-13 20:25N 18°01' W 063°05'0 0.0
2017-Aug-13 19:50N 18°01' W 063°05'0 0.0
2017-Aug-13 19:27N 18°01' W 063°05'0 0.0
2017-Aug-13 18:59N 18°01' W 063°05'0 0.0
2017-Aug-13 18:30N 18°01' W 063°05'0 0.0
2017-Aug-13 18:00N 18°01' W 063°05'0 0.0
2017-Aug-13 17:30N 18°01' W 063°05'0 0.0
2017-Aug-13 17:00N 18°01' W 063°05'0 0.1
2017-Aug-13 16:24N 18°01' W 063°05'0 0.3
2017-Aug-13 15:59N 18°01' W 063°05'1 2.1
2017-Aug-13 15:29N 18°00' W 063°05'510.3
2017-Aug-13 15:00N 17°55' W 063°05'510.5
2017-Aug-13 14:30N 17°50' W 063°05'7210.2
2017-Aug-13 07:28N 16°45' W 062°32'510.3
2017-Aug-13 07:00N 16°41' W 062°29'510.2
2017-Aug-13 06:30N 16°37' W 062°26'510.2
2017-Aug-13 06:00N 16°33' W 062°23'510.2
2017-Aug-13 05:30N 16°29' W 062°20'510.1
2017-Aug-13 05:00N 16°24' W 062°17'5 9.9
2017-Aug-13 04:30N 16°20' W 062°14'4410.3
2017-Aug-13 00:12N 15°45' W 061°47'211.1
2017-Aug-13 00:00N 15°43' W 061°46'511.1
2017-Aug-12 23:30N 15°39' W 061°42'611.1
2017-Aug-12 22:59N 15°34' W 061°38'610.8
2017-Aug-12 22:26N 15°30' W 061°35'49 2.9
2017-Aug-12 05:44N 14°43' W 061°22'4 9.8
2017-Aug-12 05:17N 14°38' W 061°22'410.3
2017-Aug-12 04:53N 14°34' W 061°21'410.7
2017-Aug-12 04:30N 14°30' W 061°21'4 0.2
2017-Aug-11 05:01N 14°27' W 061°18'3 9.3
2017-Aug-11 04:43N 14°30' W 061°19'2 9.3
2017-Aug-11 04:28N 14°32' W 061°19'4 9.2
2017-Aug-11 04:00N 14°36' W 061°20'5 9.6
2017-Aug-11 03:29N 14°41' W 061°22'5110.0
2017-Aug-10 22:20N 15°31' W 061°34'510.3
2017-Aug-10 21:48N 15°35' W 061°38'410.0
2017-Aug-10 21:25N 15°38' W 061°41'710.0
2017-Aug-10 20:44N 15°43' W 061°46'2410.2
2017-Aug-10 18:20N 16°03' W 062°00'411.6
2017-Aug-10 18:01N 16°07' W 062°00'611.5
2017-Aug-10 17:30N 16°12' W 061°60'611.3
2017-Aug-10 17:00N 16°18' W 061°60'510.9
2017-Aug-10 16:30N 16°23' W 061°60'510.3
2017-Aug-10 16:00N 16°29' W 061°59'510.6
2017-Aug-10 15:30N 16°34' W 061°59'510.6
2017-Aug-10 15:01N 16°39' W 061°59'510.7
2017-Aug-10 14:31N 16°44' W 061°58'510.8
2017-Aug-10 14:01N 16°50' W 061°58'510.8
2017-Aug-10 13:31N 16°55' W 061°58'510.7
2017-Aug-10 13:01N 17°01' W 061°58'510.5
2017-Aug-10 12:30N 17°06' W 061°58'4 7.6
2017-Aug-10 12:00N 17°09' W 061°55'3 5.5
2017-Aug-10 11:29N 17°09' W 061°52'0 0.0
2017-Aug-10 10:59N 17°09' W 061°52'0 0.0
2017-Aug-10 10:29N 17°09' W 061°52'0 0.0
2017-Aug-10 09:59N 17°09' W 061°52'0 0.0
2017-Aug-10 09:29N 17°09' W 061°52'0 0.0
2017-Aug-10 08:59N 17°09' W 061°52'0 0.0
2017-Aug-10 08:29N 17°09' W 061°52'0 0.0
2017-Aug-10 07:59N 17°09' W 061°52'0 0.0
2017-Aug-10 07:29N 17°09' W 061°52'0 0.0
2017-Aug-10 06:59N 17°09' W 061°52'0 0.0
2017-Aug-10 06:29N 17°09' W 061°52'0 0.0
2017-Aug-10 05:59N 17°09' W 061°52'0 0.0
2017-Aug-10 05:29N 17°09' W 061°52'0 0.0
2017-Aug-10 05:00N 17°09' W 061°52'0 0.0
2017-Aug-10 04:30N 17°09' W 061°52'0 0.0
2017-Aug-10 04:00N 17°09' W 061°52'0 0.0
2017-Aug-10 03:29N 17°09' W 061°52'0 0.0
2017-Aug-10 02:59N 17°09' W 061°52'0 0.2
2017-Aug-10 02:31N 17°09' W 061°52'1 1.4
2017-Aug-10 02:01N 17°09' W 061°53'1 2.0
2017-Aug-10 01:30N 17°09' W 061°52'0 0.0
2017-Aug-10 01:00N 17°09' W 061°52'0 0.0
2017-Aug-10 00:30N 17°09' W 061°52'0 0.0
2017-Aug-10 00:00N 17°09' W 061°52'0 0.0
2017-Aug-09 23:30N 17°09' W 061°52'0 0.0
2017-Aug-09 23:00N 17°09' W 061°52'0 0.0
2017-Aug-09 22:30N 17°09' W 061°52'0 0.0
2017-Aug-09 22:00N 17°09' W 061°52'0 0.0
2017-Aug-09 21:30N 17°09' W 061°52'0 0.0
2017-Aug-09 21:00N 17°09' W 061°52'0 0.0
2017-Aug-09 20:30N 17°09' W 061°52'0 0.0
2017-Aug-09 20:00N 17°09' W 061°52'0 0.0
2017-Aug-09 19:30N 17°09' W 061°52'0 0.0
2017-Aug-09 19:00N 17°09' W 061°52'0 0.0
2017-Aug-09 18:30N 17°09' W 061°52'0 0.0
2017-Aug-09 18:00N 17°09' W 061°52'0 0.0
2017-Aug-09 17:30N 17°09' W 061°52'0 0.0
2017-Aug-09 17:00N 17°09' W 061°52'0 0.0
2017-Aug-09 16:30N 17°09' W 061°52'0 0.0
2017-Aug-09 16:00N 17°09' W 061°52'0 0.0
2017-Aug-09 15:30N 17°09' W 061°52'0 0.0
2017-Aug-09 15:00N 17°09' W 061°52'0 0.0
2017-Aug-09 14:30N 17°09' W 061°52'0 0.0
2017-Aug-09 14:00N 17°09' W 061°52'0 0.0
2017-Aug-09 13:30N 17°09' W 061°52'0 0.0
2017-Aug-09 13:00N 17°09' W 061°52'0 0.0
2017-Aug-09 12:30N 17°09' W 061°52'0 0.0
2017-Aug-09 12:00N 17°09' W 061°52'0 0.0
2017-Aug-09 11:30N 17°09' W 061°52'0 0.0
2017-Aug-09 11:00N 17°09' W 061°52'0 0.0
2017-Aug-09 10:30N 17°09' W 061°52'0 0.0
2017-Aug-09 10:00N 17°09' W 061°52'0 0.0
2017-Aug-09 09:30N 17°09' W 061°52'0 0.0
2017-Aug-09 09:00N 17°09' W 061°52'0 0.0
2017-Aug-09 08:30N 17°09' W 061°52'0 0.0
2017-Aug-09 08:00N 17°09' W 061°52'0 0.0
2017-Aug-09 07:30N 17°09' W 061°52'0 0.0
2017-Aug-09 07:00N 17°09' W 061°52'0 0.0
2017-Aug-09 06:30N 17°09' W 061°52'0 0.0
2017-Aug-09 06:00N 17°09' W 061°52'0 0.0
2017-Aug-09 05:30N 17°09' W 061°52'0 0.0
2017-Aug-09 05:00N 17°09' W 061°52'0 0.0
2017-Aug-09 04:30N 17°09' W 061°52'0 0.0
2017-Aug-09 04:00N 17°09' W 061°52'0 0.0
2017-Aug-09 03:30N 17°09' W 061°52'0 0.0
2017-Aug-09 03:00N 17°09' W 061°52'0 0.0
2017-Aug-09 02:30N 17°09' W 061°52'0 0.0
2017-Aug-09 02:00N 17°09' W 061°52'0 0.0
2017-Aug-09 01:30N 17°09' W 061°52'0 0.0
2017-Aug-09 01:00N 17°09' W 061°52'0 0.0
2017-Aug-09 00:30N 17°09' W 061°52'0 0.0
2017-Aug-09 00:00N 17°09' W 061°52'0 0.0
2017-Aug-08 23:30N 17°09' W 061°52'0 0.0
2017-Aug-08 23:00N 17°09' W 061°52'0 0.0
2017-Aug-08 22:30N 17°09' W 061°52'0 0.1
2017-Aug-08 22:00N 17°09' W 061°52'1 2.2
2017-Aug-08 21:30N 17°09' W 061°53'1 1.4
2017-Aug-08 21:00N 17°08' W 061°53'0 0.0
2017-Aug-08 20:30N 17°08' W 061°53'0 0.0
2017-Aug-08 20:00N 17°08' W 061°53'0 0.0
2017-Aug-08 19:30N 17°08' W 061°53'0 0.0
2017-Aug-08 19:00N 17°08' W 061°53'0 0.0
2017-Aug-08 18:30N 17°08' W 061°53'0 0.0
2017-Aug-08 18:00N 17°08' W 061°53'0 0.0
2017-Aug-08 17:30N 17°08' W 061°53'0 0.0
2017-Aug-08 17:00N 17°08' W 061°53'0 0.0
2017-Aug-08 16:30N 17°08' W 061°53'0 0.0
2017-Aug-08 16:00N 17°08' W 061°53'0 0.0
2017-Aug-08 15:30N 17°08' W 061°53'0 0.0
2017-Aug-08 15:00N 17°08' W 061°53'0 0.0
2017-Aug-08 14:30N 17°08' W 061°53'0 0.0
2017-Aug-08 14:00N 17°08' W 061°53'0 0.1
2017-Aug-08 13:30N 17°08' W 061°53'0 0.0
2017-Aug-08 13:00N 17°08' W 061°53'0 0.0
2017-Aug-08 12:30N 17°08' W 061°53'0 0.0
2017-Aug-08 12:00N 17°08' W 061°53'0 0.0
2017-Aug-08 11:30N 17°08' W 061°53'0 0.0
2017-Aug-08 11:00N 17°08' W 061°53'0 0.1
2017-Aug-08 10:30N 17°08' W 061°53'3 5.6
2017-Aug-08 10:00N 17°09' W 061°56'5 9.6
2017-Aug-08 09:30N 17°09' W 062°01'5 9.4
2017-Aug-08 09:00N 17°09' W 062°06'5 9.2
2017-Aug-08 08:30N 17°08' W 062°11'5 9.0
2017-Aug-08 08:00N 17°08' W 062°15'2 3.3
2017-Aug-08 07:30N 17°07' W 062°16'510.1
2017-Aug-08 06:59N 17°04' W 062°11'3 5.4
2017-Aug-08 06:30N 17°03' W 062°09'5 9.5
2017-Aug-08 06:00N 17°05' W 062°13'5 9.3
2017-Aug-08 05:30N 17°07' W 062°17'3 5.1
2017-Aug-08 05:00N 17°09' W 062°19'5 9.8
2017-Aug-08 04:30N 17°06' W 062°16'5 9.8
2017-Aug-08 04:00N 17°02' W 062°12'5 9.8
2017-Aug-08 03:30N 16°59' W 062°08'5 9.8
2017-Aug-08 03:00N 16°55' W 062°04'510.2
2017-Aug-08 02:30N 16°52' W 062°01'5 9.1
2017-Aug-08 02:00N 16°48' W 061°58'5 9.4
2017-Aug-08 01:30N 16°43' W 061°58'5 9.5
2017-Aug-08 01:00N 16°39' W 061°59'5 9.6
2017-Aug-08 00:30N 16°34' W 061°59'5 9.3
2017-Aug-08 00:00N 16°29' W 061°59'5 9.3
2017-Aug-07 23:30N 16°25' W 061°60'5 9.3
2017-Aug-07 23:00N 16°20' W 061°60'5 9.5
2017-Aug-07 22:30N 16°15' W 061°60'5 9.6
2017-Aug-07 22:00N 16°10' W 061°60'17 9.9
2017-Aug-07 20:16N 15°57' W 061°49'310.6
2017-Aug-07 20:00N 15°56' W 061°46'1011.0
2017-Aug-07 19:06N 15°56' W 061°36'  

Dump ship's entire track history